Greig, New York
Current Conditions -  °F | °C
As of 5:53 AM on Thursday 23 Oct 2014 (Local Time) from KRME Reporting Station
Overcast Overcast  
Wind Chill: 41°   Ceiling: 2400
Heat Index: 45°   Visibility: 10mi
Dew Point: 39°   Wind: 8mph
Humidity: 80%   Direction: 320°NW
Pressure: 29.97"   Gusts: NA
Location:  43.68°N, 75.35°W
Report Text: KRME 230953Z AUTO 32007KT 10SM OVC024 07/04 A2997 RMK AO2 SLP148 T00720039
Loading
Personal Weather Stations






























Interactive Weather Map
Tropical Storm Tracking
New forecast layout! Learn more

10-Day Weather Forecast

Advertisements
Track Severe Weather on mobile